sensor_id;sensor_type;location;lat;lon;timestamp;P1;durP1;ratioP1;P2;durP2;ratioP2
70455;SDS011;57916;51.996;5.180;2023-04-03T00:00:32;5.28;;;1.50;;
70455;SDS011;57916;51.996;5.180;2023-04-03T00:03:00;2.15;;;1.50;;
70455;SDS011;57916;51.996;5.180;2023-04-03T00:05:27;3.50;;;1.60;;
70455;SDS011;57916;51.996;5.180;2023-04-03T00:07:54;2.40;;;1.73;;
70455;SDS011;57916;51.996;5.180;2023-04-03T00:10:21;2.33;;;1.38;;
70455;SDS011;57916;51.996;5.180;2023-04-03T00:12:48;3.28;;;1.13;;
70455;SDS011;57916;51.996;5.180;2023-04-03T00:15:15;3.15;;;1.52;;
70455;SDS011;57916;51.996;5.180;2023-04-03T00:17:42;2.42;;;1.40;;
70455;SDS011;57916;51.996;5.180;2023-04-03T00:20:09;2.38;;;1.58;;
70455;SDS011;57916;51.996;5.180;2023-04-03T00:22:36;1.63;;;1.48;;
70455;SDS011;57916;51.996;5.180;2023-04-03T00:25:03;2.60;;;1.47;;
70455;SDS011;57916;51.996;5.180;2023-04-03T00:27:31;3.10;;;1.50;;
70455;SDS011;57916;51.996;5.180;2023-04-03T00:29:57;1.65;;;1.40;;
70455;SDS011;57916;51.996;5.180;2023-04-03T00:32:24;2.60;;;1.60;;
70455;SDS011;57916;51.996;5.180;2023-04-03T00:34:51;3.13;;;1.40;;
70455;SDS011;57916;51.996;5.180;2023-04-03T00:37:18;1.50;;;1.40;;
70455;SDS011;57916;51.996;5.180;2023-04-03T00:39:45;4.30;;;1.40;;
70455;SDS011;57916;51.996;5.180;2023-04-03T00:42:12;2.92;;;1.50;;
70455;SDS011;57916;51.996;5.180;2023-04-03T00:47:07;1.50;;;1.40;;
70455;SDS011;57916;51.996;5.180;2023-04-03T00:49:37;2.00;;;1.40;;
70455;SDS011;57916;51.996;5.180;2023-04-03T00:52:06;1.42;;;1.27;;
70455;SDS011;57916;51.996;5.180;2023-04-03T00:54:40;1.30;;;1.20;;
70455;SDS011;57916;51.996;5.180;2023-04-03T00:57:09;5.38;;;1.30;;
70455;SDS011;57916;51.996;5.180;2023-04-03T00:59:42;2.55;;;1.40;;
70455;SDS011;57916;51.996;5.180;2023-04-03T01:02:15;4.45;;;1.50;;
70455;SDS011;57916;51.996;5.180;2023-04-03T01:04:42;1.90;;;1.30;;
70455;SDS011;57916;51.996;5.180;2023-04-03T01:07:11;2.33;;;1.42;;
70455;SDS011;57916;51.996;5.180;2023-04-03T01:09:45;1.55;;;1.38;;
70455;SDS011;57916;51.996;5.180;2023-04-03T01:14:48;1.90;;;1.23;;
70455;SDS011;57916;51.996;5.180;2023-04-03T01:25:18;1.30;;;1.20;;
70455;SDS011;57916;51.996;5.180;2023-04-03T01:27:45;2.10;;;1.13;;
70455;SDS011;57916;51.996;5.180;2023-04-03T01:30:12;1.27;;;1.20;;
70455;SDS011;57916;51.996;5.180;2023-04-03T01:32:43;2.63;;;1.53;;
70455;SDS011;57916;51.996;5.180;2023-04-03T01:35:11;2.13;;;1.52;;
70455;SDS011;57916;51.996;5.180;2023-04-03T01:37:38;3.50;;;1.40;;
70455;SDS011;57916;51.996;5.180;2023-04-03T01:40:05;1.58;;;1.30;;
70455;SDS011;57916;51.996;5.180;2023-04-03T01:42:33;1.50;;;1.40;;
70455;SDS011;57916;51.996;5.180;2023-04-03T01:45:00;2.43;;;1.40;;
70455;SDS011;57916;51.996;5.180;2023-04-03T01:47:27;2.63;;;1.55;;
70455;SDS011;57916;51.996;5.180;2023-04-03T01:49:55;1.40;;;1.30;;
70455;SDS011;57916;51.996;5.180;2023-04-03T01:52:22;1.92;;;1.60;;
70455;SDS011;57916;51.996;5.180;2023-04-03T01:54:50;4.55;;;1.52;;
70455;SDS011;57916;51.996;5.180;2023-04-03T01:57:17;2.38;;;1.60;;
70455;SDS011;57916;51.996;5.180;2023-04-03T01:59:44;2.50;;;1.60;;
70455;SDS011;57916;51.996;5.180;2023-04-03T02:02:11;2.10;;;1.60;;
70455;SDS011;57916;51.996;5.180;2023-04-03T02:04:38;5.40;;;1.90;;
70455;SDS011;57916;51.996;5.180;2023-04-03T02:07:05;1.83;;;1.48;;
70455;SDS011;57916;51.996;5.180;2023-04-03T02:09:33;4.63;;;1.48;;
70455;SDS011;57916;51.996;5.180;2023-04-03T02:11:59;2.83;;;1.60;;
70455;SDS011;57916;51.996;5.180;2023-04-03T02:14:26;1.58;;;1.45;;
70455;SDS011;57916;51.996;5.180;2023-04-03T02:16:53;2.13;;;1.35;;
70455;SDS011;57916;51.996;5.180;2023-04-03T02:19:21;7.25;;;1.88;;
70455;SDS011;57916;51.996;5.180;2023-04-03T02:21:48;3.13;;;1.58;;
70455;SDS011;57916;51.996;5.180;2023-04-03T02:24:15;3.20;;;1.50;;
70455;SDS011;57916;51.996;5.180;2023-04-03T02:26:42;2.25;;;1.48;;
70455;SDS011;57916;51.996;5.180;2023-04-03T02:29:09;3.00;;;1.50;;
70455;SDS011;57916;51.996;5.180;2023-04-03T02:31:36;2.40;;;1.45;;
70455;SDS011;57916;51.996;5.180;2023-04-03T02:34:04;1.88;;;1.30;;
70455;SDS011;57916;51.996;5.180;2023-04-03T02:36:33;3.47;;;1.60;;
70455;SDS011;57916;51.996;5.180;2023-04-03T02:39:03;2.53;;;1.58;;
70455;SDS011;57916;51.996;5.180;2023-04-03T02:41:30;1.83;;;1.55;;
70455;SDS011;57916;51.996;5.180;2023-04-03T02:44:05;4.55;;;1.60;;
70455;SDS011;57916;51.996;5.180;2023-04-03T02:46:33;3.45;;;1.67;;
70455;SDS011;57916;51.996;5.180;2023-04-03T02:49:01;3.58;;;1.60;;
70455;SDS011;57916;51.996;5.180;2023-04-03T02:51:28;3.70;;;1.75;;
70455;SDS011;57916;51.996;5.180;2023-04-03T02:53:55;2.80;;;1.63;;
70455;SDS011;57916;51.996;5.180;2023-04-03T02:56:26;3.25;;;1.90;;
70455;SDS011;57916;51.996;5.180;2023-04-03T02:58:53;3.58;;;1.10;;
70455;SDS011;57916;51.996;5.180;2023-04-03T03:01:20;1.83;;;1.60;;
70455;SDS011;57916;51.996;5.180;2023-04-03T03:03:47;2.13;;;1.60;;
70455;SDS011;57916;51.996;5.180;2023-04-03T03:06:15;1.88;;;1.40;;
70455;SDS011;57916;51.996;5.180;2023-04-03T03:08:43;2.05;;;1.63;;
70455;SDS011;57916;51.996;5.180;2023-04-03T03:11:10;2.65;;;1.70;;
70455;SDS011;57916;51.996;5.180;2023-04-03T03:13:38;1.83;;;1.40;;
70455;SDS011;57916;51.996;5.180;2023-04-03T03:16:05;2.20;;;1.70;;
70455;SDS011;57916;51.996;5.180;2023-04-03T03:18:33;3.08;;;1.60;;
70455;SDS011;57916;51.996;5.180;2023-04-03T03:21:01;1.83;;;1.73;;
70455;SDS011;57916;51.996;5.180;2023-04-03T03:23:30;5.97;;;1.75;;
70455;SDS011;57916;51.996;5.180;2023-04-03T03:25:59;4.13;;;2.00;;
70455;SDS011;57916;51.996;5.180;2023-04-03T03:28:28;7.28;;;2.20;;
70455;SDS011;57916;51.996;5.180;2023-04-03T03:30:56;4.57;;;2.17;;
70455;SDS011;57916;51.996;5.180;2023-04-03T03:33:24;2.85;;;1.75;;
70455;SDS011;57916;51.996;5.180;2023-04-03T03:35:52;4.50;;;1.88;;
70455;SDS011;57916;51.996;5.180;2023-04-03T03:38:21;1.90;;;1.60;;
70455;SDS011;57916;51.996;5.180;2023-04-03T03:40:49;3.35;;;1.80;;
70455;SDS011;57916;51.996;5.180;2023-04-03T03:43:18;4.18;;;1.95;;
70455;SDS011;57916;51.996;5.180;2023-04-03T03:45:51;3.28;;;1.60;;
70455;SDS011;57916;51.996;5.180;2023-04-03T03:48:21;3.03;;;2.15;;
70455;SDS011;57916;51.996;5.180;2023-04-03T03:50:48;1.95;;;1.77;;
70455;SDS011;57916;51.996;5.180;2023-04-03T03:53:18;2.10;;;1.90;;
70455;SDS011;57916;51.996;5.180;2023-04-03T03:55:47;3.05;;;1.92;;
70455;SDS011;57916;51.996;5.180;2023-04-03T03:58:15;1.98;;;1.80;;
70455;SDS011;57916;51.996;5.180;2023-04-03T04:00:42;4.32;;;2.00;;
70455;SDS011;57916;51.996;5.180;2023-04-03T04:03:10;3.50;;;1.90;;
70455;SDS011;57916;51.996;5.180;2023-04-03T04:05:37;4.95;;;2.00;;
70455;SDS011;57916;51.996;5.180;2023-04-03T04:08:05;4.95;;;2.08;;
70455;SDS011;57916;51.996;5.180;2023-04-03T04:10:33;2.92;;;2.00;;
70455;SDS011;57916;51.996;5.180;2023-04-03T04:13:01;4.20;;;1.90;;
70455;SDS011;57916;51.996;5.180;2023-04-03T04:15:28;5.30;;;1.90;;
70455;SDS011;57916;51.996;5.180;2023-04-03T04:17:55;2.22;;;1.70;;
70455;SDS011;57916;51.996;5.180;2023-04-03T04:20:23;4.97;;;1.90;;
70455;SDS011;57916;51.996;5.180;2023-04-03T04:22:51;3.40;;;2.00;;
70455;SDS011;57916;51.996;5.180;2023-04-03T04:25:20;4.53;;;2.00;;
70455;SDS011;57916;51.996;5.180;2023-04-03T04:27:47;6.20;;;2.50;;
70455;SDS011;57916;51.996;5.180;2023-04-03T04:30:14;3.20;;;2.10;;
70455;SDS011;57916;51.996;5.180;2023-04-03T04:32:43;4.65;;;1.95;;
70455;SDS011;57916;51.996;5.180;2023-04-03T04:35:11;4.53;;;2.17;;
70455;SDS011;57916;51.996;5.180;2023-04-03T04:37:43;3.95;;;2.20;;
70455;SDS011;57916;51.996;5.180;2023-04-03T04:40:11;7.15;;;2.17;;
70455;SDS011;57916;51.996;5.180;2023-04-03T04:42:38;2.88;;;1.88;;
70455;SDS011;57916;51.996;5.180;2023-04-03T04:45:06;4.18;;;2.00;;
70455;SDS011;57916;51.996;5.180;2023-04-03T04:47:35;5.30;;;2.08;;
70455;SDS011;57916;51.996;5.180;2023-04-03T04:50:02;2.60;;;1.70;;
70455;SDS011;57916;51.996;5.180;2023-04-03T04:52:31;2.73;;;1.90;;
70455;SDS011;57916;51.996;5.180;2023-04-03T04:54:58;5.75;;;1.98;;
70455;SDS011;57916;51.996;5.180;2023-04-03T04:57:26;5.65;;;1.98;;
70455;SDS011;57916;51.996;5.180;2023-04-03T04:59:56;2.58;;;2.05;;
70455;SDS011;57916;51.996;5.180;2023-04-03T05:02:23;5.20;;;2.30;;
70455;SDS011;57916;51.996;5.180;2023-04-03T05:04:50;3.67;;;2.20;;
70455;SDS011;57916;51.996;5.180;2023-04-03T05:07:22;5.78;;;2.20;;
70455;SDS011;57916;51.996;5.180;2023-04-03T05:09:50;6.95;;;2.30;;
70455;SDS011;57916;51.996;5.180;2023-04-03T05:12:17;3.43;;;2.03;;
70455;SDS011;57916;51.996;5.180;2023-04-03T05:14:51;3.75;;;2.40;;
70455;SDS011;57916;51.996;5.180;2023-04-03T05:17:18;3.63;;;1.92;;
70455;SDS011;57916;51.996;5.180;2023-04-03T05:19:49;2.95;;;2.28;;
70455;SDS011;57916;51.996;5.180;2023-04-03T05:22:19;5.35;;;1.98;;
70455;SDS011;57916;51.996;5.180;2023-04-03T05:24:47;5.07;;;2.08;;
70455;SDS011;57916;51.996;5.180;2023-04-03T05:27:14;4.17;;;1.90;;
70455;SDS011;57916;51.996;5.180;2023-04-03T05:29:47;5.35;;;2.10;;
70455;SDS011;57916;51.996;5.180;2023-04-03T05:32:19;3.50;;;1.80;;
70455;SDS011;57916;51.996;5.180;2023-04-03T05:34:50;8.10;;;2.67;;
70455;SDS011;57916;51.996;5.180;2023-04-03T05:37:18;3.97;;;1.77;;
70455;SDS011;57916;51.996;5.180;2023-04-03T05:39:46;3.28;;;1.88;;
70455;SDS011;57916;51.996;5.180;2023-04-03T05:42:13;2.97;;;1.73;;
70455;SDS011;57916;51.996;5.180;2023-04-03T05:44:41;4.85;;;1.88;;
70455;SDS011;57916;51.996;5.180;2023-04-03T05:47:09;4.60;;;1.77;;
70455;SDS011;57916;51.996;5.180;2023-04-03T05:49:36;2.83;;;1.38;;
70455;SDS011;57916;51.996;5.180;2023-04-03T05:52:13;2.38;;;1.42;;
70455;SDS011;57916;51.996;5.180;2023-04-03T05:54:44;4.43;;;2.00;;
70455;SDS011;57916;51.996;5.180;2023-04-03T05:57:17;2.93;;;1.53;;
70455;SDS011;57916;51.996;5.180;2023-04-03T05:59:45;5.07;;;1.42;;
70455;SDS011;57916;51.996;5.180;2023-04-03T06:02:15;4.22;;;1.55;;
70455;SDS011;57916;51.996;5.180;2023-04-03T06:04:45;4.00;;;1.90;;
70455;SDS011;57916;51.996;5.180;2023-04-03T06:07:18;3.45;;;1.48;;
70455;SDS011;57916;51.996;5.180;2023-04-03T06:09:49;2.58;;;1.60;;
70455;SDS011;57916;51.996;5.180;2023-04-03T06:12:17;3.83;;;1.60;;
70455;SDS011;57916;51.996;5.180;2023-04-03T06:14:45;1.57;;;1.20;;
70455;SDS011;57916;51.996;5.180;2023-04-03T06:17:14;3.10;;;1.63;;
70455;SDS011;57916;51.996;5.180;2023-04-03T06:19:42;3.00;;;1.20;;
70455;SDS011;57916;51.996;5.180;2023-04-03T06:22:09;4.10;;;1.23;;
70455;SDS011;57916;51.996;5.180;2023-04-03T06:24:38;2.90;;;1.25;;
70455;SDS011;57916;51.996;5.180;2023-04-03T06:27:05;3.38;;;1.50;;
70455;SDS011;57916;51.996;5.180;2023-04-03T06:29:32;2.05;;;1.30;;
70455;SDS011;57916;51.996;5.180;2023-04-03T06:31:59;5.45;;;1.70;;
70455;SDS011;57916;51.996;5.180;2023-04-03T06:34:26;3.30;;;1.40;;
70455;SDS011;57916;51.996;5.180;2023-04-03T06:36:53;1.48;;;1.10;;
70455;SDS011;57916;51.996;5.180;2023-04-03T06:39:21;3.75;;;1.50;;
70455;SDS011;57916;51.996;5.180;2023-04-03T06:41:49;1.52;;;0.77;;
70455;SDS011;57916;51.996;5.180;2023-04-03T06:44:24;5.68;;;1.30;;
70455;SDS011;57916;51.996;5.180;2023-04-03T06:46:51;6.32;;;1.33;;
70455;SDS011;57916;51.996;5.180;2023-04-03T06:49:18;1.70;;;1.25;;
70455;SDS011;57916;51.996;5.180;2023-04-03T06:51:45;2.67;;;1.52;;
70455;SDS011;57916;51.996;5.180;2023-04-03T06:54:12;3.13;;;1.25;;
70455;SDS011;57916;51.996;5.180;2023-04-03T06:56:39;2.30;;;1.30;;
70455;SDS011;57916;51.996;5.180;2023-04-03T06:59:05;1.40;;;1.25;;
70455;SDS011;57916;51.996;5.180;2023-04-03T07:01:32;1.70;;;1.40;;
70455;SDS011;57916;51.996;5.180;2023-04-03T07:03:59;1.88;;;1.05;;
70455;SDS011;57916;51.996;5.180;2023-04-03T07:06:26;2.20;;;0.80;;
70455;SDS011;57916;51.996;5.180;2023-04-03T07:08:53;1.10;;;0.88;;
70455;SDS011;57916;51.996;5.180;2023-04-03T07:11:23;0.80;;;0.70;;
70455;SDS011;57916;51.996;5.180;2023-04-03T07:13:50;1.65;;;0.70;;
70455;SDS011;57916;51.996;5.180;2023-04-03T07:16:17;1.80;;;0.87;;
70455;SDS011;57916;51.996;5.180;2023-04-03T07:18:45;3.50;;;1.67;;
70455;SDS011;57916;51.996;5.180;2023-04-03T07:21:12;2.00;;;1.25;;
70455;SDS011;57916;51.996;5.180;2023-04-03T07:23:40;2.28;;;1.10;;
70455;SDS011;57916;51.996;5.180;2023-04-03T07:26:06;4.80;;;1.05;;
70455;SDS011;57916;51.996;5.180;2023-04-03T07:28:34;1.30;;;0.70;;
70455;SDS011;57916;51.996;5.180;2023-04-03T07:31:03;4.13;;;0.90;;
70455;SDS011;57916;51.996;5.180;2023-04-03T07:33:34;2.80;;;1.05;;
70455;SDS011;57916;51.996;5.180;2023-04-03T07:36:02;1.60;;;0.85;;
70455;SDS011;57916;51.996;5.180;2023-04-03T07:38:29;2.92;;;1.02;;
70455;SDS011;57916;51.996;5.180;2023-04-03T07:40:57;2.15;;;0.60;;
70455;SDS011;57916;51.996;5.180;2023-04-03T07:43:24;1.60;;;1.17;;
70455;SDS011;57916;51.996;5.180;2023-04-03T07:45:51;2.10;;;0.93;;
70455;SDS011;57916;51.996;5.180;2023-04-03T07:48:23;1.45;;;0.70;;
70455;SDS011;57916;51.996;5.180;2023-04-03T07:50:51;2.10;;;0.88;;
70455;SDS011;57916;51.996;5.180;2023-04-03T07:53:18;1.40;;;1.10;;
70455;SDS011;57916;51.996;5.180;2023-04-03T07:55:46;1.10;;;0.52;;
70455;SDS011;57916;51.996;5.180;2023-04-03T07:58:15;1.88;;;0.90;;
70455;SDS011;57916;51.996;5.180;2023-04-03T08:00:45;4.63;;;1.08;;
70455;SDS011;57916;51.996;5.180;2023-04-03T08:03:12;1.00;;;0.45;;
70455;SDS011;57916;51.996;5.180;2023-04-03T08:05:40;2.97;;;1.48;;
70455;SDS011;57916;51.996;5.180;2023-04-03T08:08:09;2.42;;;0.98;;
70455;SDS011;57916;51.996;5.180;2023-04-03T08:10:38;1.52;;;0.98;;
70455;SDS011;57916;51.996;5.180;2023-04-03T08:13:05;0.45;;;0.45;;
70455;SDS011;57916;51.996;5.180;2023-04-03T08:15:33;2.25;;;0.98;;
70455;SDS011;57916;51.996;5.180;2023-04-03T08:18:00;1.05;;;0.93;;
70455;SDS011;57916;51.996;5.180;2023-04-03T08:20:27;1.38;;;0.80;;
70455;SDS011;57916;51.996;5.180;2023-04-03T08:22:54;2.28;;;0.95;;
70455;SDS011;57916;51.996;5.180;2023-04-03T08:25:21;2.60;;;1.17;;
70455;SDS011;57916;51.996;5.180;2023-04-03T08:27:48;1.35;;;0.80;;
70455;SDS011;57916;51.996;5.180;2023-04-03T08:30:15;4.07;;;1.08;;
70455;SDS011;57916;51.996;5.180;2023-04-03T08:32:43;1.35;;;0.70;;
70455;SDS011;57916;51.996;5.180;2023-04-03T08:35:11;0.52;;;0.52;;
70455;SDS011;57916;51.996;5.180;2023-04-03T08:37:38;0.98;;;0.65;;
70455;SDS011;57916;51.996;5.180;2023-04-03T08:40:07;1.27;;;0.57;;
70455;SDS011;57916;51.996;5.180;2023-04-03T08:45:17;3.80;;;1.10;;
70455;SDS011;57916;51.996;5.180;2023-04-03T08:48:04;1.70;;;0.90;;
70455;SDS011;57916;51.996;5.180;2023-04-03T08:50:43;0.40;;;0.40;;
70455;SDS011;57916;51.996;5.180;2023-04-03T08:53:14;1.10;;;0.80;;
70455;SDS011;57916;51.996;5.180;2023-04-03T08:55:45;1.63;;;1.00;;
70455;SDS011;57916;51.996;5.180;2023-04-03T08:58:16;0.80;;;0.40;;
70455;SDS011;57916;51.996;5.180;2023-04-03T09:00:50;0.88;;;0.45;;
70455;SDS011;57916;51.996;5.180;2023-04-03T09:03:22;0.40;;;0.40;;
70455;SDS011;57916;51.996;5.180;2023-04-03T09:05:54;1.40;;;0.63;;
70455;SDS011;57916;51.996;5.180;2023-04-03T09:11:24;2.00;;;0.43;;
70455;SDS011;57916;51.996;5.180;2023-04-03T09:14:07;1.40;;;0.70;;
70455;SDS011;57916;51.996;5.180;2023-04-03T09:20:10;0.32;;;0.32;;
70455;SDS011;57916;51.996;5.180;2023-04-03T09:22:31;1.10;;;0.33;;
70455;SDS011;57916;51.996;5.180;2023-04-03T09:25:18;1.88;;;0.30;;
70455;SDS011;57916;51.996;5.180;2023-04-03T09:27:49;0.30;;;0.30;;
70455;SDS011;57916;51.996;5.180;2023-04-03T09:30:21;0.52;;;0.32;;
70455;SDS011;57916;51.996;5.180;2023-04-03T09:32:51;0.40;;;0.40;;
70455;SDS011;57916;51.996;5.180;2023-04-03T09:35:21;0.32;;;0.20;;
70455;SDS011;57916;51.996;5.180;2023-04-03T09:40:43;2.40;;;0.60;;
70455;SDS011;57916;51.996;5.180;2023-04-03T09:43:32;0.40;;;0.40;;
70455;SDS011;57916;51.996;5.180;2023-04-03T09:46:17;0.55;;;0.40;;
70455;SDS011;57916;51.996;5.180;2023-04-03T09:49:01;1.65;;;0.77;;
70455;SDS011;57916;51.996;5.180;2023-04-03T09:51:35;1.98;;;0.47;;
70455;SDS011;57916;51.996;5.180;2023-04-03T09:54:48;0.80;;;0.35;;
70455;SDS011;57916;51.996;5.180;2023-04-03T09:56:51;1.45;;;0.40;;
70455;SDS011;57916;51.996;5.180;2023-04-03T09:59:22;0.98;;;0.40;;
70455;SDS011;57916;51.996;5.180;2023-04-03T10:05:05;1.50;;;0.40;;
70455;SDS011;57916;51.996;5.180;2023-04-03T10:08:08;0.45;;;0.30;;
70455;SDS011;57916;51.996;5.180;2023-04-03T10:10:36;0.52;;;0.38;;
70455;SDS011;57916;51.996;5.180;2023-04-03T10:13:05;0.80;;;0.40;;
70455;SDS011;57916;51.996;5.180;2023-04-03T10:15:44;0.40;;;0.40;;
70455;SDS011;57916;51.996;5.180;2023-04-03T10:21:09;0.50;;;0.30;;
70455;SDS011;57916;51.996;5.180;2023-04-03T10:23:59;0.30;;;0.30;;
70455;SDS011;57916;51.996;5.180;2023-04-03T10:29:36;0.20;;;0.20;;
70455;SDS011;57916;51.996;5.180;2023-04-03T10:38:15;0.13;;;0.10;;
70455;SDS011;57916;51.996;5.180;2023-04-03T10:40:59;0.50;;;0.10;;
70455;SDS011;57916;51.996;5.180;2023-04-03T10:51:48;2.83;;;0.30;;
70455;SDS011;57916;51.996;5.180;2023-04-03T10:54:32;0.38;;;0.30;;
70455;SDS011;57916;51.996;5.180;2023-04-03T10:57:09;0.43;;;0.43;;
70455;SDS011;57916;51.996;5.180;2023-04-03T10:59:53;0.43;;;0.25;;
70455;SDS011;57916;51.996;5.180;2023-04-03T11:02:31;0.60;;;0.30;;
70455;SDS011;57916;51.996;5.180;2023-04-03T11:05:04;0.40;;;0.40;;
70455;SDS011;57916;51.996;5.180;2023-04-03T11:07:38;0.75;;;0.30;;
70455;SDS011;57916;51.996;5.180;2023-04-03T11:10:17;3.95;;;0.30;;
70455;SDS011;57916;51.996;5.180;2023-04-03T11:13:06;0.87;;;0.30;;
70455;SDS011;57916;51.996;5.180;2023-04-03T11:15:38;0.35;;;0.25;;
70455;SDS011;57916;51.996;5.180;2023-04-03T11:18:07;0.77;;;0.20;;
70455;SDS011;57916;51.996;5.180;2023-04-03T11:20:38;0.27;;;0.27;;
70455;SDS011;57916;51.996;5.180;2023-04-03T11:25:49;0.68;;;0.50;;
70455;SDS011;57916;51.996;5.180;2023-04-03T11:28:18;0.63;;;0.57;;
70455;SDS011;57916;51.996;5.180;2023-04-03T11:30:50;0.80;;;0.60;;
70455;SDS011;57916;51.996;5.180;2023-04-03T11:36:41;0.90;;;0.50;;
70455;SDS011;57916;51.996;5.180;2023-04-03T11:39:18;0.50;;;0.50;;
70455;SDS011;57916;51.996;5.180;2023-04-03T11:47:53;0.55;;;0.52;;
70455;SDS011;57916;51.996;5.180;2023-04-03T11:58:22;0.63;;;0.60;;
70455;SDS011;57916;51.996;5.180;2023-04-03T12:03:31;0.93;;;0.70;;
70455;SDS011;57916;51.996;5.180;2023-04-03T12:18:58;1.90;;;0.55;;
70455;SDS011;57916;51.996;5.180;2023-04-03T12:29:21;1.30;;;0.63;;
70455;SDS011;57916;51.996;5.180;2023-04-03T12:37:48;1.30;;;0.40;;
70455;SDS011;57916;51.996;5.180;2023-04-03T12:46:35;1.02;;;0.60;;
70455;SDS011;57916;51.996;5.180;2023-04-03T12:49:20;4.77;;;0.90;;
70455;SDS011;57916;51.996;5.180;2023-04-03T12:51:55;1.48;;;0.70;;
70455;SDS011;57916;51.996;5.180;2023-04-03T12:54:23;1.58;;;0.60;;
70455;SDS011;57916;51.996;5.180;2023-04-03T12:59:41;2.50;;;0.80;;
70455;SDS011;57916;51.996;5.180;2023-04-03T13:02:15;1.23;;;0.80;;
70455;SDS011;57916;51.996;5.180;2023-04-03T13:04:44;2.15;;;0.70;;
70455;SDS011;57916;51.996;5.180;2023-04-03T13:07:22;2.50;;;0.90;;
70455;SDS011;57916;51.996;5.180;2023-04-03T13:10:00;1.70;;;0.70;;
70455;SDS011;57916;51.996;5.180;2023-04-03T13:12:31;0.70;;;0.70;;
70455;SDS011;57916;51.996;5.180;2023-04-03T13:15:00;2.47;;;0.80;;
70455;SDS011;57916;51.996;5.180;2023-04-03T13:17:38;2.20;;;0.60;;
70455;SDS011;57916;51.996;5.180;2023-04-03T13:20:13;1.90;;;0.70;;
70455;SDS011;57916;51.996;5.180;2023-04-03T13:22:48;0.90;;;0.80;;
70455;SDS011;57916;51.996;5.180;2023-04-03T13:25:21;3.10;;;0.82;;
70455;SDS011;57916;51.996;5.180;2023-04-03T13:27:50;1.20;;;0.70;;
70455;SDS011;57916;51.996;5.180;2023-04-03T13:30:32;3.30;;;0.90;;
70455;SDS011;57916;51.996;5.180;2023-04-03T13:33:04;0.70;;;0.70;;
70455;SDS011;57916;51.996;5.180;2023-04-03T13:35:44;1.48;;;0.65;;
70455;SDS011;57916;51.996;5.180;2023-04-03T13:40:55;1.40;;;0.70;;
70455;SDS011;57916;51.996;5.180;2023-04-03T13:43:27;1.60;;;0.70;;
70455;SDS011;57916;51.996;5.180;2023-04-03T13:46:22;0.45;;;0.45;;
70455;SDS011;57916;51.996;5.180;2023-04-03T13:48:54;1.08;;;0.68;;
70455;SDS011;57916;51.996;5.180;2023-04-03T13:51:24;0.77;;;0.57;;
70455;SDS011;57916;51.996;5.180;2023-04-03T13:53:54;3.30;;;0.90;;
70455;SDS011;57916;51.996;5.180;2023-04-03T14:02:30;1.73;;;0.55;;
70455;SDS011;57916;51.996;5.180;2023-04-03T14:04:30;0.30;;;0.30;;
70455;SDS011;57916;51.996;5.180;2023-04-03T14:07:11;0.60;;;0.60;;
70455;SDS011;57916;51.996;5.180;2023-04-03T14:09:38;2.53;;;0.98;;
70455;SDS011;57916;51.996;5.180;2023-04-03T14:12:07;4.70;;;0.70;;
70455;SDS011;57916;51.996;5.180;2023-04-03T14:14:55;2.35;;;0.60;;
70455;SDS011;57916;51.996;5.180;2023-04-03T14:17:23;2.70;;;0.80;;
70455;SDS011;57916;51.996;5.180;2023-04-03T14:19:54;1.52;;;0.60;;
70455;SDS011;57916;51.996;5.180;2023-04-03T14:22:23;1.10;;;0.70;;
70455;SDS011;57916;51.996;5.180;2023-04-03T14:24:51;2.50;;;0.70;;
70455;SDS011;57916;51.996;5.180;2023-04-03T14:27:20;2.03;;;0.73;;
70455;SDS011;57916;51.996;5.180;2023-04-03T14:30:00;1.73;;;0.85;;
70455;SDS011;57916;51.996;5.180;2023-04-03T14:32:29;0.93;;;0.77;;
70455;SDS011;57916;51.996;5.180;2023-04-03T14:34:57;2.85;;;0.90;;
70455;SDS011;57916;51.996;5.180;2023-04-03T14:37:26;1.00;;;0.90;;
70455;SDS011;57916;51.996;5.180;2023-04-03T14:39:56;0.70;;;0.63;;
70455;SDS011;57916;51.996;5.180;2023-04-03T14:42:27;0.63;;;0.50;;
70455;SDS011;57916;51.996;5.180;2023-04-03T14:44:57;0.63;;;0.63;;
70455;SDS011;57916;51.996;5.180;2023-04-03T14:47:27;1.85;;;0.68;;
70455;SDS011;57916;51.996;5.180;2023-04-03T14:49:58;0.60;;;0.60;;
70455;SDS011;57916;51.996;5.180;2023-04-03T14:52:28;0.40;;;0.40;;
70455;SDS011;57916;51.996;5.180;2023-04-03T14:55:01;2.83;;;0.60;;
70455;SDS011;57916;51.996;5.180;2023-04-03T14:57:29;1.77;;;0.90;;
70455;SDS011;57916;51.996;5.180;2023-04-03T14:59:57;0.90;;;0.60;;
70455;SDS011;57916;51.996;5.180;2023-04-03T15:02:34;0.88;;;0.88;;
70455;SDS011;57916;51.996;5.180;2023-04-03T15:05:04;4.70;;;1.00;;
70455;SDS011;57916;51.996;5.180;2023-04-03T15:07:34;1.20;;;0.60;;
70455;SDS011;57916;51.996;5.180;2023-04-03T15:10:25;0.50;;;0.50;;
70455;SDS011;57916;51.996;5.180;2023-04-03T15:12:52;0.57;;;0.43;;
70455;SDS011;57916;51.996;5.180;2023-04-03T15:15:20;1.13;;;0.60;;
70455;SDS011;57916;51.996;5.180;2023-04-03T15:17:51;1.77;;;0.85;;
70455;SDS011;57916;51.996;5.180;2023-04-03T15:20:26;3.20;;;0.90;;
70455;SDS011;57916;51.996;5.180;2023-04-03T15:22:56;1.73;;;0.80;;
70455;SDS011;57916;51.996;5.180;2023-04-03T15:25:26;1.30;;;0.50;;
70455;SDS011;57916;51.996;5.180;2023-04-03T15:27:54;1.63;;;0.60;;
70455;SDS011;57916;51.996;5.180;2023-04-03T15:30:22;0.95;;;0.60;;
70455;SDS011;57916;51.996;5.180;2023-04-03T15:32:49;1.30;;;0.80;;
70455;SDS011;57916;51.996;5.180;2023-04-03T15:35:16;1.90;;;0.70;;
70455;SDS011;57916;51.996;5.180;2023-04-03T15:37:43;1.00;;;0.40;;
70455;SDS011;57916;51.996;5.180;2023-04-03T15:40:10;2.50;;;0.93;;
70455;SDS011;57916;51.996;5.180;2023-04-03T15:42:37;1.60;;;0.68;;
70455;SDS011;57916;51.996;5.180;2023-04-03T15:45:05;0.73;;;0.73;;
70455;SDS011;57916;51.996;5.180;2023-04-03T15:47:33;0.65;;;0.57;;
70455;SDS011;57916;51.996;5.180;2023-04-03T15:50:00;1.50;;;0.52;;
70455;SDS011;57916;51.996;5.180;2023-04-03T15:52:27;1.25;;;0.30;;
70455;SDS011;57916;51.996;5.180;2023-04-03T15:54:54;2.72;;;0.95;;
70455;SDS011;57916;51.996;5.180;2023-04-03T15:57:20;1.85;;;0.80;;
70455;SDS011;57916;51.996;5.180;2023-04-03T15:59:52;4.40;;;0.95;;
70455;SDS011;57916;51.996;5.180;2023-04-03T16:02:19;0.82;;;0.82;;
70455;SDS011;57916;51.996;5.180;2023-04-03T16:04:47;2.58;;;0.93;;
70455;SDS011;57916;51.996;5.180;2023-04-03T16:07:14;0.50;;;0.47;;
70455;SDS011;57916;51.996;5.180;2023-04-03T16:09:41;1.15;;;0.52;;
70455;SDS011;57916;51.996;5.180;2023-04-03T16:12:08;1.17;;;0.70;;
70455;SDS011;57916;51.996;5.180;2023-04-03T16:14:35;2.13;;;0.67;;
70455;SDS011;57916;51.996;5.180;2023-04-03T16:17:02;1.65;;;0.90;;
70455;SDS011;57916;51.996;5.180;2023-04-03T16:19:29;0.77;;;0.77;;
70455;SDS011;57916;51.996;5.180;2023-04-03T16:21:57;1.13;;;1.02;;
70455;SDS011;57916;51.996;5.180;2023-04-03T16:24:24;1.20;;;0.70;;
70455;SDS011;57916;51.996;5.180;2023-04-03T16:26:51;0.85;;;0.80;;
70455;SDS011;57916;51.996;5.180;2023-04-03T16:29:19;2.20;;;0.95;;
70455;SDS011;57916;51.996;5.180;2023-04-03T16:31:46;1.35;;;0.60;;
70455;SDS011;57916;51.996;5.180;2023-04-03T16:34:13;1.95;;;1.08;;
70455;SDS011;57916;51.996;5.180;2023-04-03T16:36:41;2.00;;;0.80;;
70455;SDS011;57916;51.996;5.180;2023-04-03T16:39:08;2.60;;;0.82;;
70455;SDS011;57916;51.996;5.180;2023-04-03T16:41:36;0.90;;;0.88;;
70455;SDS011;57916;51.996;5.180;2023-04-03T16:44:03;3.30;;;1.30;;
70455;SDS011;57916;51.996;5.180;2023-04-03T16:46:29;1.73;;;1.00;;
70455;SDS011;57916;51.996;5.180;2023-04-03T16:48:56;1.63;;;1.05;;
70455;SDS011;57916;51.996;5.180;2023-04-03T16:51:23;1.63;;;0.90;;
70455;SDS011;57916;51.996;5.180;2023-04-03T16:53:50;1.10;;;1.00;;
70455;SDS011;57916;51.996;5.180;2023-04-03T16:56:17;0.75;;;0.73;;
70455;SDS011;57916;51.996;5.180;2023-04-03T16:58:45;0.90;;;0.80;;